createdAt,value
2023-05-25T00:00:49.725Z,435.10
2023-05-25T00:01:39.024Z,444.90
2023-05-25T00:02:39.245Z,455.80
2023-05-25T00:03:39.039Z,457.70
2023-05-25T00:04:39.075Z,471.30
2023-05-25T00:05:38.948Z,460.20
2023-05-25T00:06:38.953Z,461.50
2023-05-25T00:07:38.944Z,477.60
2023-05-25T00:08:38.944Z,449.00
2023-05-25T00:09:38.957Z,459.00
2023-05-25T00:10:38.932Z,456.50
2023-05-25T00:11:38.938Z,467.20
2023-05-25T00:12:38.923Z,462.00
2023-05-25T00:13:38.923Z,359.90
2023-05-25T00:14:38.927Z,611.30
2023-05-25T00:15:38.934Z,474.80
2023-05-25T00:16:38.947Z,491.70
2023-05-25T00:17:38.964Z,459.80
2023-05-25T00:18:38.912Z,431.10
2023-05-25T00:19:38.913Z,385.10
2023-05-25T00:20:39.029Z,406.10
2023-05-25T00:21:38.901Z,422.80
2023-05-25T00:22:38.933Z,428.30
2023-05-25T00:23:38.899Z,409.80
2023-05-25T00:24:38.893Z,394.70
2023-05-25T00:25:38.929Z,397.30
2023-05-25T00:26:38.880Z,411.50
2023-05-25T00:27:38.886Z,382.30
2023-05-25T00:28:38.866Z,378.50
2023-05-25T00:29:38.861Z,390.90
2023-05-25T00:30:38.994Z,392.00
2023-05-25T00:31:38.929Z,392.80
2023-05-25T00:32:38.883Z,370.30
2023-05-25T00:33:38.861Z,390.40
2023-05-25T00:34:38.865Z,383.60
2023-05-25T00:35:38.852Z,387.90
2023-05-25T00:36:38.846Z,408.90
2023-05-25T00:37:38.852Z,372.60
2023-05-25T00:38:38.836Z,372.30
2023-05-25T00:39:38.829Z,478.70
2023-05-25T00:40:38.824Z,627.80
2023-05-25T00:41:38.848Z,384.70
2023-05-25T00:42:38.823Z,443.50
2023-05-25T00:43:38.819Z,438.10
2023-05-25T00:44:38.817Z,423.20
2023-05-25T00:45:38.814Z,394.60
2023-05-25T00:46:38.943Z,380.90
2023-05-25T00:47:39.282Z,368.80
2023-05-25T00:48:38.801Z,393.20
2023-05-25T00:49:38.828Z,379.70
2023-05-25T00:50:38.790Z,340.10
2023-05-25T00:51:38.796Z,325.70
2023-05-25T00:52:38.782Z,321.00
2023-05-25T00:53:38.780Z,303.30
2023-05-25T00:54:38.783Z,303.50
2023-05-25T00:55:38.782Z,278.00
2023-05-25T00:56:38.788Z,449.60
2023-05-25T00:57:38.790Z,449.30
2023-05-25T00:58:38.764Z,136.00
2023-05-25T00:59:38.760Z,157.90
2023-05-25T01:00:38.772Z,474.40
2023-05-25T01:01:38.792Z,479.20
2023-05-25T01:02:38.917Z,470.80
2023-05-25T01:03:38.835Z,448.10
2023-05-25T01:04:38.739Z,395.20
2023-05-25T01:05:38.740Z,396.10
2023-05-25T01:06:38.732Z,375.80
2023-05-25T01:07:38.729Z,381.70
2023-05-25T01:08:38.726Z,393.60
2023-05-25T01:09:38.723Z,395.30
2023-05-25T01:10:38.716Z,414.10
2023-05-25T01:11:38.712Z,400.30
2023-05-25T01:12:38.711Z,388.10
2023-05-25T01:13:38.730Z,413.50
2023-05-25T01:14:38.709Z,414.30
2023-05-25T01:15:38.698Z,409.90
2023-05-25T01:16:38.726Z,404.90
2023-05-25T01:17:38.762Z,411.70
2023-05-25T01:18:38.689Z,419.40
2023-05-25T01:19:38.685Z,408.90
2023-05-25T01:20:38.704Z,423.30
2023-05-25T01:21:38.686Z,433.40
2023-05-25T01:22:38.672Z,397.00
2023-05-25T01:23:38.673Z,444.70
2023-05-25T01:24:38.664Z,413.00
2023-05-25T01:25:38.672Z,446.20
2023-05-25T01:26:38.661Z,451.30
2023-05-25T01:27:38.658Z,475.00
2023-05-25T01:28:38.667Z,456.90
2023-05-25T01:29:38.679Z,450.10
2023-05-25T01:30:38.645Z,442.10
2023-05-25T01:31:38.657Z,463.50
2023-05-25T01:32:38.706Z,461.70
2023-05-25T01:33:38.633Z,474.80
2023-05-25T01:34:38.637Z,474.30
2023-05-25T01:35:38.626Z,507.30
2023-05-25T01:36:38.621Z,501.80
2023-05-25T01:37:38.615Z,510.90
2023-05-25T01:38:38.631Z,512.90
2023-05-25T01:39:38.609Z,520.90
2023-05-25T01:40:38.608Z,516.00
2023-05-25T01:41:38.601Z,476.50
2023-05-25T01:42:38.596Z,463.20
2023-05-25T01:43:38.592Z,378.40
2023-05-25T01:44:38.587Z,149.60
2023-05-25T01:45:38.699Z,347.60
2023-05-25T01:46:38.621Z,481.40
2023-05-25T01:47:38.594Z,509.00
2023-05-25T01:48:38.570Z,527.00
2023-05-25T01:49:38.572Z,488.90
2023-05-25T01:50:38.566Z,438.10
2023-05-25T01:51:38.579Z,440.30
2023-05-25T01:52:38.554Z,402.30
2023-05-25T01:53:38.560Z,432.10
2023-05-25T01:54:38.550Z,425.80
2023-05-25T01:55:38.547Z,437.60
2023-05-25T01:56:38.545Z,431.70
2023-05-25T01:57:38.551Z,442.00
2023-05-25T01:58:38.539Z,459.50
2023-05-25T01:59:38.530Z,463.80
2023-05-25T02:00:38.529Z,432.90
2023-05-25T02:01:38.710Z,423.30
2023-05-25T02:02:38.561Z,431.90
2023-05-25T02:03:38.517Z,440.10
2023-05-25T02:04:38.547Z,431.30
2023-05-25T02:05:38.510Z,458.00
2023-05-25T02:06:38.506Z,448.60
2023-05-25T02:07:38.507Z,466.20
2023-05-25T02:08:38.501Z,428.80
2023-05-25T02:09:38.496Z,435.70
2023-05-25T02:10:38.494Z,426.80
2023-05-25T02:11:38.487Z,453.70
2023-05-25T02:12:38.484Z,441.80
2023-05-25T02:13:38.481Z,443.50
2023-05-25T02:14:38.484Z,457.00
2023-05-25T02:15:38.493Z,118.70
2023-05-25T02:16:38.503Z,126.80
2023-05-25T02:17:38.612Z,364.40
2023-05-25T02:18:38.473Z,484.90
2023-05-25T02:19:38.459Z,517.20
2023-05-25T02:20:38.482Z,511.90
2023-05-25T02:21:38.460Z,459.10
2023-05-25T02:22:38.450Z,422.90
2023-05-25T02:23:38.443Z,422.40
2023-05-25T02:24:38.523Z,428.70
2023-05-25T02:25:38.453Z,447.20
2023-05-25T02:26:38.441Z,451.40
2023-05-25T02:27:38.429Z,391.20
2023-05-25T02:28:38.429Z,159.20
2023-05-25T02:29:38.427Z,190.50
2023-05-25T02:30:38.416Z,393.00
2023-05-25T02:31:38.453Z,442.40
2023-05-25T02:32:38.428Z,435.20
2023-05-25T02:33:38.620Z,415.60
2023-05-25T02:34:38.401Z,377.30
2023-05-25T02:35:38.416Z,348.70
2023-05-25T02:36:38.401Z,340.20
2023-05-25T02:37:38.390Z,345.60
2023-05-25T02:38:38.387Z,362.70
2023-05-25T02:39:38.386Z,349.60
2023-05-25T02:40:38.410Z,343.20
2023-05-25T02:41:38.382Z,367.40
2023-05-25T02:42:38.394Z,372.40
2023-05-25T02:43:38.368Z,388.10
2023-05-25T02:44:38.370Z,368.40
2023-05-25T02:45:38.364Z,367.90
2023-05-25T02:46:38.407Z,377.40
2023-05-25T02:47:38.373Z,360.00
2023-05-25T02:48:38.360Z,369.90
2023-05-25T02:49:38.375Z,377.70
2023-05-25T02:50:38.339Z,374.60
2023-05-25T02:51:38.331Z,86.20
2023-05-25T02:52:38.482Z,120.10
2023-05-25T02:53:38.331Z,417.20
2023-05-25T02:54:38.322Z,446.10
2023-05-25T02:55:38.318Z,408.40
2023-05-25T02:56:38.327Z,370.00
2023-05-25T02:57:38.311Z,340.30
2023-05-25T02:58:38.308Z,332.10
2023-05-25T02:59:38.305Z,343.30
2023-05-25T03:00:38.324Z,352.50
2023-05-25T03:01:38.295Z,343.90
2023-05-25T03:02:38.339Z,350.80
2023-05-25T03:03:38.309Z,341.40
2023-05-25T03:04:38.279Z,353.90
2023-05-25T03:05:38.321Z,334.70
2023-05-25T03:06:38.271Z,340.20
2023-05-25T03:07:38.272Z,348.80
2023-05-25T03:08:38.265Z,360.40
2023-05-25T03:09:38.262Z,365.50
2023-05-25T03:10:38.258Z,353.30
2023-05-25T03:11:38.256Z,335.90
2023-05-25T03:12:38.254Z,338.60
2023-05-25T03:13:38.245Z,331.50
2023-05-25T03:14:38.242Z,340.20
2023-05-25T03:15:38.243Z,363.00
2023-05-25T03:16:38.244Z,84.00
2023-05-25T03:17:38.254Z,131.60
2023-05-25T03:18:38.231Z,364.70
2023-05-25T03:19:38.242Z,397.10
2023-05-25T03:20:38.366Z,374.70
2023-05-25T03:21:38.265Z,368.30
2023-05-25T03:22:38.210Z,332.60
2023-05-25T03:23:38.208Z,296.80
2023-05-25T03:24:38.207Z,322.40
2023-05-25T03:25:38.197Z,354.60
2023-05-25T03:26:38.203Z,333.50
2023-05-25T03:27:38.192Z,307.00
2023-05-25T03:28:38.188Z,291.20
2023-05-25T03:29:38.192Z,309.00
2023-05-25T03:30:38.179Z,293.80
2023-05-25T03:31:38.196Z,303.40
2023-05-25T03:32:38.208Z,315.00
2023-05-25T03:33:38.168Z,306.80
2023-05-25T03:34:38.164Z,300.70
2023-05-25T03:35:38.162Z,309.10
2023-05-25T03:36:38.157Z,327.70
2023-05-25T03:37:38.179Z,322.10
2023-05-25T03:38:38.153Z,322.90
2023-05-25T03:39:38.148Z,323.30
2023-05-25T03:40:38.140Z,320.50
2023-05-25T03:41:38.137Z,358.50
2023-05-25T03:42:38.136Z,327.10
2023-05-25T03:43:38.131Z,348.90
2023-05-25T03:44:40.463Z,336.00
2023-05-25T03:45:38.122Z,339.40
2023-05-25T03:46:38.173Z,340.50
2023-05-25T03:47:38.162Z,343.50
2023-05-25T03:48:38.116Z,332.20
2023-05-25T03:49:38.117Z,326.50
2023-05-25T03:50:38.108Z,321.50
2023-05-25T03:51:38.095Z,337.30
2023-05-25T03:52:38.103Z,348.30
2023-05-25T03:53:38.112Z,344.20
2023-05-25T03:54:38.089Z,344.40
2023-05-25T03:55:38.079Z,345.80
2023-05-25T03:56:38.078Z,345.00
2023-05-25T03:57:38.275Z,360.70
2023-05-25T03:58:38.097Z,331.30
2023-05-25T03:59:38.085Z,336.10
2023-05-25T04:00:38.082Z,350.50
2023-05-25T04:01:38.081Z,342.80
2023-05-25T04:02:38.114Z,340.60
2023-05-25T04:03:38.262Z,338.00
2023-05-25T04:04:38.081Z,340.70
2023-05-25T04:05:38.041Z,179.30
2023-05-25T04:06:38.044Z,163.50
2023-05-25T04:07:38.034Z,324.70
2023-05-25T04:08:38.032Z,367.00
2023-05-25T04:09:38.059Z,399.20
2023-05-25T04:10:38.022Z,364.70
2023-05-25T04:11:38.015Z,333.50
2023-05-25T04:12:38.013Z,343.10
2023-05-25T04:13:38.012Z,348.90
2023-05-25T04:14:38.009Z,343.00
2023-05-25T04:15:37.998Z,341.60
2023-05-25T04:16:38.051Z,321.70
2023-05-25T04:17:39.389Z,119.80
2023-05-25T04:18:37.990Z,198.90
2023-05-25T04:19:37.992Z,375.80
2023-05-25T04:20:38.213Z,366.80
2023-05-25T04:21:37.984Z,347.10
2023-05-25T04:22:37.981Z,337.50
2023-05-25T04:23:37.968Z,317.80
2023-05-25T04:24:37.979Z,327.70
2023-05-25T04:25:37.981Z,320.20
2023-05-25T04:26:37.958Z,296.20
2023-05-25T04:27:37.954Z,290.30
2023-05-25T04:28:37.951Z,310.00
2023-05-25T04:29:37.954Z,306.40
2023-05-25T04:30:37.941Z,301.00
2023-05-25T04:31:37.980Z,308.40
2023-05-25T04:32:37.956Z,307.30
2023-05-25T04:33:37.927Z,321.00
2023-05-25T04:34:37.939Z,316.50
2023-05-25T04:35:37.920Z,317.30
2023-05-25T04:36:37.915Z,294.10
2023-05-25T04:37:37.912Z,305.00
2023-05-25T04:38:37.915Z,312.10
2023-05-25T04:39:37.901Z,329.90
2023-05-25T04:40:37.900Z,316.00
2023-05-25T04:41:37.912Z,336.80
2023-05-25T04:42:37.897Z,301.60
2023-05-25T04:43:39.144Z,297.00
2023-05-25T04:44:37.899Z,291.50
2023-05-25T04:45:37.934Z,291.30
2023-05-25T04:46:37.926Z,305.20
2023-05-25T04:47:37.891Z,305.30
2023-05-25T04:48:37.869Z,296.60
2023-05-25T04:49:37.868Z,297.40
2023-05-25T04:50:37.861Z,300.20
2023-05-25T04:51:37.850Z,297.90
2023-05-25T04:52:37.852Z,292.30
2023-05-25T04:53:37.850Z,296.90
2023-05-25T04:54:37.847Z,298.00
2023-05-25T04:55:37.834Z,290.40
2023-05-25T04:56:37.833Z,290.40
2023-05-25T04:57:37.878Z,317.70
2023-05-25T04:58:37.829Z,315.10
2023-05-25T04:59:37.836Z,341.90
2023-05-25T05:00:37.833Z,334.90
2023-05-25T05:01:37.869Z,339.20
2023-05-25T05:02:37.997Z,348.00
2023-05-25T05:03:37.834Z,365.00
2023-05-25T05:04:37.824Z,336.60
2023-05-25T05:05:37.822Z,319.10
2023-05-25T05:06:37.803Z,319.40
2023-05-25T05:07:37.792Z,325.40
2023-05-25T05:08:37.791Z,332.00
2023-05-25T05:09:37.787Z,320.70
2023-05-25T05:10:37.807Z,330.00
2023-05-25T05:11:37.799Z,337.10
2023-05-25T05:12:37.774Z,326.90
2023-05-25T05:13:37.787Z,332.70
2023-05-25T05:14:37.790Z,344.30
2023-05-25T05:15:37.762Z,349.70
2023-05-25T05:16:37.825Z,343.40
2023-05-25T05:17:37.763Z,349.70
2023-05-25T05:18:37.751Z,340.70
2023-05-25T05:19:37.748Z,343.30
2023-05-25T05:20:37.780Z,345.90
2023-05-25T05:21:37.747Z,349.20
2023-05-25T05:22:37.743Z,343.10
2023-05-25T05:23:37.735Z,356.50
2023-05-25T05:24:37.731Z,362.50
2023-05-25T05:25:37.725Z,345.70
2023-05-25T05:26:48.210Z,346.00
2023-05-25T05:27:37.733Z,356.60
2023-05-25T05:28:37.718Z,335.30
2023-05-25T05:29:37.791Z,351.50
2023-05-25T05:30:37.711Z,340.60
2023-05-25T05:31:37.745Z,334.50
2023-05-25T05:32:37.760Z,329.30
2023-05-25T05:33:37.758Z,345.40
2023-05-25T05:34:37.739Z,343.30
2023-05-25T05:35:37.710Z,345.90
2023-05-25T05:36:48.869Z,364.90
2023-05-25T05:37:37.693Z,348.70
2023-05-25T05:38:39.955Z,361.40
2023-05-25T05:39:37.681Z,343.00
2023-05-25T05:40:37.695Z,345.10
2023-05-25T05:41:37.670Z,351.40
2023-05-25T05:42:37.687Z,316.70
2023-05-25T05:43:37.673Z,308.70
2023-05-25T05:44:37.662Z,333.80
2023-05-25T05:45:37.710Z,337.70
2023-05-25T05:46:37.765Z,329.40
2023-05-25T05:47:37.755Z,366.00
2023-05-25T05:48:37.647Z,348.10
2023-05-25T05:49:37.639Z,327.60
2023-05-25T05:50:39.568Z,350.60
2023-05-25T05:51:37.662Z,352.60
2023-05-25T05:52:37.647Z,348.20
2023-05-25T05:53:37.655Z,323.50
2023-05-25T05:54:37.627Z,334.10
2023-05-25T05:55:37.629Z,335.50
2023-05-25T05:56:37.625Z,339.00
2023-05-25T05:57:37.647Z,340.20
2023-05-25T05:58:37.614Z,333.20
2023-05-25T05:59:37.611Z,347.10
2023-05-25T06:00:37.632Z,355.40
2023-05-25T06:01:37.677Z,354.00
2023-05-25T06:02:40.698Z,354.70
2023-05-25T06:03:37.610Z,347.00
2023-05-25T06:04:37.595Z,351.40
2023-05-25T06:05:37.644Z,344.60
2023-05-25T06:06:37.585Z,342.60
2023-05-25T06:07:37.582Z,354.10
2023-05-25T06:08:37.589Z,356.90
2023-05-25T06:09:37.589Z,354.80
2023-05-25T06:10:37.576Z,362.60
2023-05-25T06:11:37.606Z,379.50
2023-05-25T06:12:37.576Z,364.70
2023-05-25T06:13:37.556Z,378.10
2023-05-25T06:14:37.563Z,383.10
2023-05-25T06:15:37.563Z,363.10
2023-05-25T06:16:37.632Z,369.00
2023-05-25T06:17:37.686Z,389.20
2023-05-25T06:18:37.548Z,384.20
2023-05-25T06:19:37.548Z,386.70
2023-05-25T06:20:37.646Z,392.70
2023-05-25T06:21:37.539Z,399.80
2023-05-25T06:22:37.532Z,396.70
2023-05-25T06:23:37.531Z,388.90
2023-05-25T06:24:37.525Z,368.40
2023-05-25T06:25:37.524Z,369.00
2023-05-25T06:26:37.547Z,368.00
2023-05-25T06:27:37.513Z,369.80
2023-05-25T06:28:37.522Z,369.60
2023-05-25T06:29:37.513Z,395.50
2023-05-25T06:30:37.508Z,345.00
2023-05-25T06:31:37.553Z,380.10
2023-05-25T06:32:37.523Z,377.10
2023-05-25T06:33:37.542Z,377.20
2023-05-25T06:34:38.312Z,376.20
2023-05-25T06:35:37.493Z,406.60
2023-05-25T06:36:37.485Z,380.60
2023-05-25T06:37:37.481Z,388.10
2023-05-25T06:38:37.480Z,367.00
2023-05-25T06:39:37.478Z,358.00
2023-05-25T06:40:37.476Z,372.90
2023-05-25T06:41:37.474Z,376.30
2023-05-25T06:42:37.468Z,367.40
2023-05-25T06:43:37.473Z,371.60
2023-05-25T06:44:37.459Z,366.90
2023-05-25T06:45:37.466Z,361.90
2023-05-25T06:46:37.485Z,356.70
2023-05-25T06:47:37.528Z,352.60
2023-05-25T06:48:37.457Z,355.10
2023-05-25T06:49:37.469Z,355.70
2023-05-25T06:50:37.465Z,359.50
2023-05-25T06:51:37.488Z,368.90
2023-05-25T06:52:37.444Z,347.50
2023-05-25T06:53:37.432Z,373.00
2023-05-25T06:54:37.432Z,369.20
2023-05-25T06:55:37.446Z,387.70
2023-05-25T06:56:37.428Z,386.50
2023-05-25T06:57:37.422Z,382.40
2023-05-25T06:58:37.440Z,382.40
2023-05-25T06:59:37.423Z,373.80
2023-05-25T07:00:37.416Z,382.80
2023-05-25T07:01:37.439Z,405.00
2023-05-25T07:02:37.437Z,372.60
2023-05-25T07:03:37.405Z,378.60
2023-05-25T07:04:37.456Z,383.60
2023-05-25T07:05:37.423Z,400.40
2023-05-25T07:06:37.404Z,367.60
2023-05-25T07:07:37.396Z,379.60
2023-05-25T07:08:37.399Z,375.60
2023-05-25T07:09:37.393Z,348.60
2023-05-25T07:10:37.390Z,347.70
2023-05-25T07:11:37.386Z,384.00
2023-05-25T07:12:37.384Z,387.60
2023-05-25T07:13:37.381Z,344.80
2023-05-25T07:14:37.396Z,373.00
2023-05-25T07:15:37.383Z,358.90
2023-05-25T07:16:37.439Z,387.80
2023-05-25T07:17:37.435Z,408.60
2023-05-25T07:18:37.376Z,399.80
2023-05-25T07:19:37.371Z,397.10
2023-05-25T07:20:37.434Z,378.00
2023-05-25T07:21:37.443Z,369.10
2023-05-25T07:22:37.369Z,370.00
2023-05-25T07:23:37.376Z,363.50
2023-05-25T07:24:37.356Z,395.70
2023-05-25T07:25:37.350Z,397.60
2023-05-25T07:26:37.354Z,389.00
2023-05-25T07:27:37.374Z,424.70
2023-05-25T07:28:37.350Z,415.80
2023-05-25T07:29:37.341Z,432.60
2023-05-25T07:30:37.342Z,454.70
2023-05-25T07:31:37.425Z,433.90
2023-05-25T07:32:37.365Z,456.10
2023-05-25T07:33:37.330Z,441.00
2023-05-25T07:34:37.331Z,448.80
2023-05-25T07:35:37.325Z,434.00
2023-05-25T07:36:37.325Z,445.10
2023-05-25T07:37:37.362Z,429.70
2023-05-25T07:38:37.324Z,467.00
2023-05-25T07:39:37.314Z,422.60
2023-05-25T07:40:37.322Z,428.00
2023-05-25T07:41:37.312Z,421.50
2023-05-25T07:42:37.314Z,449.30
2023-05-25T07:43:37.311Z,452.10
2023-05-25T07:44:37.307Z,424.40
2023-05-25T07:45:37.304Z,432.50
2023-05-25T07:46:37.328Z,418.00
2023-05-25T07:47:37.337Z,396.20
2023-05-25T07:48:37.293Z,407.50
2023-05-25T07:49:37.295Z,395.60
2023-05-25T07:50:37.299Z,413.60
2023-05-25T07:51:37.287Z,391.50
2023-05-25T07:52:37.289Z,383.90
2023-05-25T07:53:37.302Z,365.30
2023-05-25T07:54:37.315Z,380.80
2023-05-25T07:55:37.274Z,389.10
2023-05-25T07:56:37.278Z,383.00
2023-05-25T07:57:37.276Z,369.50
2023-05-25T07:58:37.270Z,367.50
2023-05-25T07:59:37.298Z,417.30
2023-05-25T08:00:37.276Z,381.40
2023-05-25T08:01:37.261Z,405.10
2023-05-25T08:02:37.626Z,390.70
2023-05-25T08:03:48.835Z,387.80
2023-05-25T08:04:37.427Z,420.80
2023-05-25T08:05:37.253Z,405.20
2023-05-25T08:06:37.255Z,424.60
2023-05-25T08:07:37.249Z,466.90
2023-05-25T08:08:37.249Z,435.80
2023-05-25T08:09:37.264Z,461.60
2023-05-25T08:10:37.249Z,428.00
2023-05-25T08:11:37.240Z,435.60
2023-05-25T08:12:47.835Z,435.70
2023-05-25T08:13:37.237Z,426.00
2023-05-25T08:14:37.236Z,438.90
2023-05-25T08:15:37.232Z,426.00
2023-05-25T08:16:37.236Z,415.20
2023-05-25T08:17:37.242Z,410.30
2023-05-25T08:18:37.228Z,383.30
2023-05-25T08:19:37.220Z,395.10
2023-05-25T08:20:37.270Z,404.00
2023-05-25T08:21:37.212Z,400.70
2023-05-25T08:22:37.215Z,422.60
2023-05-25T08:23:37.207Z,397.00
2023-05-25T08:24:37.208Z,409.50
2023-05-25T08:25:37.223Z,404.30
2023-05-25T08:26:52.997Z,413.40
2023-05-25T08:27:37.203Z,413.10
2023-05-25T08:28:37.201Z,425.00
2023-05-25T08:29:37.192Z,395.80
2023-05-25T08:30:37.225Z,395.10
2023-05-25T08:31:37.323Z,408.40
2023-05-25T08:32:37.226Z,403.40
2023-05-25T08:33:37.187Z,420.50
2023-05-25T08:34:37.189Z,392.70
2023-05-25T08:35:37.180Z,397.90
2023-05-25T08:36:37.176Z,432.70
2023-05-25T08:37:37.175Z,422.80
2023-05-25T08:38:37.173Z,435.60
2023-05-25T08:39:37.179Z,437.50
2023-05-25T08:40:37.170Z,410.00
2023-05-25T08:41:37.191Z,416.80
2023-05-25T08:42:37.168Z,415.30
2023-05-25T08:43:37.166Z,415.30
2023-05-25T08:44:37.175Z,412.20
2023-05-25T08:45:40.518Z,409.70
2023-05-25T08:46:37.167Z,415.40
2023-05-25T08:47:37.178Z,405.20
2023-05-25T08:48:41.869Z,425.30
2023-05-25T08:49:37.223Z,396.10
2023-05-25T08:50:37.161Z,418.10
2023-05-25T08:51:37.155Z,428.50
2023-05-25T08:52:37.149Z,424.80
2023-05-25T08:53:37.143Z,419.00
2023-05-25T08:54:37.145Z,436.50
2023-05-25T08:55:37.134Z,424.60
2023-05-25T08:56:37.199Z,406.20
2023-05-25T08:57:37.159Z,432.40
2023-05-25T08:58:37.129Z,418.00
2023-05-25T08:59:37.129Z,399.10
2023-05-25T09:00:37.121Z,446.20
2023-05-25T09:01:37.163Z,416.10
2023-05-25T09:02:37.646Z,423.90
2023-05-25T09:03:37.181Z,403.40
2023-05-25T09:04:37.122Z,424.60
2023-05-25T09:05:38.186Z,432.80
2023-05-25T09:06:37.129Z,448.20
2023-05-25T09:07:37.113Z,435.20
2023-05-25T09:08:37.100Z,457.80
2023-05-25T09:09:37.108Z,431.50
2023-05-25T09:10:37.120Z,419.80
2023-05-25T09:11:40.361Z,427.10
2023-05-25T09:12:37.099Z,431.20
2023-05-25T09:13:37.115Z,475.40
2023-05-25T09:14:37.094Z,463.20
2023-05-25T09:15:37.089Z,413.40
2023-05-25T09:16:37.124Z,438.90
2023-05-25T09:17:38.259Z,437.10
2023-05-25T09:18:37.098Z,417.00
2023-05-25T09:19:37.087Z,440.10
2023-05-25T09:20:37.108Z,452.80
2023-05-25T09:21:37.075Z,420.50
2023-05-25T09:22:37.073Z,454.00
2023-05-25T09:23:37.070Z,462.00
2023-05-25T09:24:37.078Z,417.90
2023-05-25T09:25:37.070Z,420.50
2023-05-25T09:26:37.077Z,428.60
2023-05-25T09:27:37.079Z,463.00
2023-05-25T09:28:37.060Z,404.10
2023-05-25T09:29:37.080Z,415.30
2023-05-25T09:30:37.055Z,434.30
2023-05-25T09:31:37.076Z,435.90
2023-05-25T09:32:37.078Z,435.90
2023-05-25T09:33:37.264Z,439.80
2023-05-25T09:34:37.052Z,430.50
2023-05-25T09:35:37.045Z,422.30
2023-05-25T09:36:37.115Z,432.80
2023-05-25T09:37:37.304Z,444.10
2023-05-25T09:38:37.236Z,425.80
2023-05-25T09:39:37.158Z,403.60
2023-05-25T09:40:37.050Z,438.30
2023-05-25T09:41:37.034Z,458.40
2023-05-25T09:42:37.035Z,450.50
2023-05-25T09:43:41.943Z,438.40
2023-05-25T09:44:37.043Z,437.00
2023-05-25T09:45:38.367Z,415.10
2023-05-25T09:46:37.123Z,429.40
2023-05-25T09:47:37.039Z,409.80
2023-05-25T09:48:37.023Z,430.30
2023-05-25T09:49:37.023Z,429.00
2023-05-25T09:50:37.020Z,414.10
2023-05-25T09:51:37.203Z,417.30
2023-05-25T09:52:37.012Z,422.50
2023-05-25T09:53:37.024Z,426.90
2023-05-25T09:54:37.004Z,425.70
2023-05-25T09:55:51.449Z,443.40
2023-05-25T09:56:36.992Z,452.10
2023-05-25T09:57:36.996Z,429.30
2023-05-25T09:58:36.991Z,453.40
2023-05-25T09:59:37.021Z,462.10
2023-05-25T10:00:36.996Z,458.40
2023-05-25T10:01:37.058Z,424.20
2023-05-25T10:02:37.015Z,437.80
2023-05-25T10:03:38.838Z,447.30
2023-05-25T10:04:37.042Z,471.50
2023-05-25T10:05:36.988Z,464.00
2023-05-25T10:06:36.975Z,452.40
2023-05-25T10:07:36.978Z,491.30
2023-05-25T10:08:36.966Z,518.60
2023-05-25T10:09:36.968Z,486.20
2023-05-25T10:10:36.970Z,501.70
2023-05-25T10:11:36.990Z,490.00
2023-05-25T10:12:36.956Z,466.60
2023-05-25T10:13:36.962Z,457.70
2023-05-25T10:14:36.972Z,475.60
2023-05-25T10:15:36.989Z,545.70
2023-05-25T10:16:37.027Z,508.80
2023-05-25T10:17:37.064Z,531.10
2023-05-25T10:18:36.948Z,478.50
2023-05-25T10:19:36.942Z,492.40
2023-05-25T10:20:36.972Z,513.80
2023-05-25T10:21:36.949Z,613.10
2023-05-25T10:22:36.940Z,560.00
2023-05-25T10:23:36.937Z,537.70
2023-05-25T10:24:36.948Z,576.90
2023-05-25T10:25:36.939Z,532.30
2023-05-25T10:26:36.924Z,459.50
2023-05-25T10:27:36.937Z,547.30
2023-05-25T10:28:36.930Z,507.10
2023-05-25T10:29:36.926Z,490.60
2023-05-25T10:30:36.922Z,502.70
2023-05-25T10:31:36.938Z,492.80
2023-05-25T10:32:36.987Z,465.50
2023-05-25T10:33:36.925Z,453.70
2023-05-25T10:34:36.905Z,476.40
2023-05-25T10:35:47.001Z,483.90
2023-05-25T10:36:36.907Z,506.60
2023-05-25T10:37:36.904Z,476.00
2023-05-25T10:38:36.901Z,478.10
2023-05-25T10:39:36.897Z,475.00
2023-05-25T10:40:36.892Z,484.60
2023-05-25T10:41:36.910Z,493.70
2023-05-25T10:42:36.895Z,497.00
2023-05-25T10:43:36.901Z,490.60
2023-05-25T10:44:36.894Z,516.50
2023-05-25T10:45:36.896Z,491.20
2023-05-25T10:46:36.936Z,506.10
2023-05-25T10:47:36.977Z,485.80
2023-05-25T10:48:36.893Z,501.60
2023-05-25T10:49:36.887Z,540.90
2023-05-25T10:50:36.861Z,493.70
2023-05-25T10:51:36.863Z,501.80
2023-05-25T10:52:36.857Z,516.90
2023-05-25T10:53:36.855Z,420.30
2023-05-25T10:54:36.856Z,456.90
2023-05-25T10:55:36.852Z,414.50
2023-05-25T10:56:36.858Z,467.70
2023-05-25T10:57:36.851Z,445.20
2023-05-25T10:58:36.841Z,460.90
2023-05-25T10:59:36.838Z,461.50
2023-05-25T11:00:36.927Z,465.30
2023-05-25T11:01:36.974Z,490.70
2023-05-25T11:02:36.929Z,453.10
2023-05-25T11:03:36.826Z,421.20
2023-05-25T11:04:36.873Z,432.80
2023-05-25T11:05:36.867Z,436.00
2023-05-25T11:06:36.819Z,392.80
2023-05-25T11:07:36.819Z,420.40
2023-05-25T11:08:37.267Z,413.60
2023-05-25T11:09:36.815Z,383.10
2023-05-25T11:10:36.812Z,421.80
2023-05-25T11:11:36.809Z,442.20
2023-05-25T11:12:36.811Z,472.70
2023-05-25T11:13:38.928Z,497.10
2023-05-25T11:14:36.803Z,420.70
2023-05-25T11:15:36.822Z,442.90
2023-05-25T11:16:36.843Z,437.60
2023-05-25T11:17:36.836Z,443.60
2023-05-25T11:18:36.793Z,443.00
2023-05-25T11:19:37.225Z,463.30
2023-05-25T11:20:36.815Z,456.40
2023-05-25T11:21:36.808Z,460.10
2023-05-25T11:22:36.780Z,456.70
2023-05-25T11:23:36.783Z,499.30
2023-05-25T11:24:36.783Z,475.90
2023-05-25T11:25:37.227Z,471.10
2023-05-25T11:26:36.784Z,460.30
2023-05-25T11:27:36.774Z,475.60
2023-05-25T11:28:36.769Z,493.60
2023-05-25T11:29:36.770Z,449.60
2023-05-25T11:30:36.893Z,434.70
2023-05-25T11:31:41.407Z,469.20
2023-05-25T11:32:36.803Z,484.80
2023-05-25T11:33:36.755Z,448.50
2023-05-25T11:34:36.756Z,444.30
2023-05-25T11:35:36.761Z,467.70
2023-05-25T11:36:36.756Z,447.20
2023-05-25T11:37:36.768Z,455.50
2023-05-25T11:38:36.746Z,430.30
2023-05-25T11:39:36.748Z,480.40
2023-05-25T11:40:40.060Z,479.90
2023-05-25T11:41:36.826Z,441.80
2023-05-25T11:42:36.735Z,461.90
2023-05-25T11:43:36.745Z,417.50
2023-05-25T11:44:36.842Z,420.50
2023-05-25T11:45:36.737Z,438.20
2023-05-25T11:46:36.735Z,425.80
2023-05-25T11:47:38.175Z,398.50
2023-05-25T11:48:36.722Z,436.20
2023-05-25T11:49:36.729Z,442.50
2023-05-25T11:50:36.729Z,435.60
2023-05-25T11:51:36.716Z,436.20
2023-05-25T11:52:36.715Z,415.90
2023-05-25T11:53:36.731Z,405.10
2023-05-25T11:54:36.708Z,439.30
2023-05-25T11:55:36.716Z,444.40
2023-05-25T11:56:36.711Z,418.90
2023-05-25T11:57:36.698Z,412.00
2023-05-25T11:58:36.702Z,416.40
2023-05-25T11:59:36.705Z,422.80
2023-05-25T12:00:36.697Z,419.40
2023-05-25T12:01:36.724Z,426.80
2023-05-25T12:02:36.727Z,439.00
2023-05-25T12:03:36.809Z,422.90
2023-05-25T12:04:36.786Z,433.00
2023-05-25T12:05:36.729Z,428.30
2023-05-25T12:06:36.807Z,437.10
2023-05-25T12:07:36.677Z,460.70
2023-05-25T12:08:36.685Z,447.30
2023-05-25T12:09:36.726Z,464.80
2023-05-25T12:10:36.670Z,435.30
2023-05-25T12:11:36.666Z,441.70
2023-05-25T12:12:36.662Z,432.60
2023-05-25T12:13:36.863Z,445.60
2023-05-25T12:14:36.658Z,450.00
2023-05-25T12:15:36.657Z,440.00
2023-05-25T12:16:36.671Z,490.80
2023-05-25T12:17:36.676Z,454.90
2023-05-25T12:18:36.661Z,420.40
2023-05-25T12:19:36.654Z,458.70
2023-05-25T12:20:36.673Z,416.50
2023-05-25T12:21:37.377Z,427.90
2023-05-25T12:22:36.645Z,374.20
2023-05-25T12:23:36.639Z,387.10
2023-05-25T12:24:36.636Z,363.50
2023-05-25T12:25:49.547Z,394.30
2023-05-25T12:26:36.632Z,399.70
2023-05-25T12:27:36.632Z,363.60
2023-05-25T12:28:36.630Z,371.00